createdAt,value
2018-10-11T00:00:21.441Z,17.95
2018-10-11T00:02:52.079Z,15.32
2018-10-11T00:05:22.678Z,14.93
2018-10-11T00:07:53.309Z,14.35
2018-10-11T00:10:23.911Z,15.28
2018-10-11T00:12:54.579Z,17.65
2018-10-11T00:15:25.165Z,16.30
2018-10-11T00:17:55.803Z,14.23
2018-10-11T00:20:26.410Z,15.88
2018-10-11T00:22:57.035Z,15.72
2018-10-11T00:25:27.650Z,16.00
2018-10-11T00:27:58.289Z,15.25
2018-10-11T00:30:28.896Z,18.70
2018-10-11T00:32:59.729Z,18.98
2018-10-11T00:35:30.341Z,17.77
2018-10-11T00:38:01.033Z,17.67
2018-10-11T00:40:31.634Z,16.12
2018-10-11T00:43:02.263Z,18.85
2018-10-11T00:45:32.906Z,15.38
2018-10-11T00:48:03.539Z,17.07
2018-10-11T00:50:34.182Z,15.45
2018-10-11T00:53:04.795Z,16.45
2018-10-11T00:55:35.431Z,16.17
2018-10-11T00:58:06.381Z,15.25
2018-10-11T01:00:37.013Z,15.83
2018-10-11T01:03:07.955Z,19.92
2018-10-11T01:05:38.586Z,16.05
2018-10-11T01:08:09.358Z,15.68
2018-10-11T01:10:39.974Z,15.72
2018-10-11T01:13:10.733Z,17.10
2018-10-11T01:15:41.325Z,14.50
2018-10-11T01:18:11.970Z,15.58
2018-10-11T01:20:42.630Z,15.32
2018-10-11T01:23:13.243Z,16.37
2018-10-11T01:25:43.885Z,13.95
2018-10-11T01:28:14.486Z,17.48
2018-10-11T01:30:50.454Z,17.50
2018-10-11T01:33:21.123Z,15.70
2018-10-11T01:35:51.734Z,19.48
2018-10-11T01:38:22.730Z,19.45
2018-10-11T01:40:53.747Z,16.37
2018-10-11T01:43:24.410Z,14.85
2018-10-11T01:45:55.249Z,17.07
2018-10-11T01:48:26.466Z,15.65
2018-10-11T01:50:57.751Z,16.45
2018-10-11T01:53:28.398Z,15.20
2018-10-11T01:55:59.342Z,16.42
2018-10-11T01:58:29.961Z,17.98
2018-10-11T02:01:00.591Z,14.20
2018-10-11T02:03:31.505Z,14.60
2018-10-11T02:06:02.115Z,15.83
2018-10-11T02:08:32.742Z,14.63
2018-10-11T02:11:03.709Z,18.02
2018-10-11T02:13:34.308Z,16.62
2018-10-11T02:16:05.582Z,15.32
2018-10-11T02:18:36.197Z,15.63
2018-10-11T02:21:07.175Z,15.03
2018-10-11T02:23:37.783Z,16.02
2018-10-11T02:26:08.435Z,15.60
2018-10-11T02:28:39.037Z,17.07
2018-10-11T02:31:09.678Z,17.02
2018-10-11T02:33:40.313Z,16.82
2018-10-11T02:36:10.950Z,15.88
2018-10-11T02:38:41.761Z,18.23
2018-10-11T02:41:12.396Z,19.15
2018-10-11T02:43:43.014Z,20.97
2018-10-11T02:46:13.658Z,18.67
2018-10-11T02:48:44.330Z,19.12
2018-10-11T02:51:14.939Z,18.48
2018-10-11T02:53:45.578Z,16.70
2018-10-11T02:56:16.221Z,17.42
2018-10-11T02:59:52.439Z,20.75
2018-10-11T03:02:24.410Z,18.00
2018-10-11T03:04:55.166Z,19.32
2018-10-11T03:07:27.299Z,19.00
2018-10-11T03:09:58.197Z,18.75
2018-10-11T03:12:29.533Z,18.35
2018-10-11T03:15:00.129Z,18.80
2018-10-11T03:17:30.787Z,20.45
2018-10-11T03:20:01.414Z,16.90
2018-10-11T03:22:32.137Z,18.50
2018-10-11T03:25:03.090Z,19.20
2018-10-11T03:27:34.099Z,17.02
2018-10-11T03:30:05.090Z,17.98
2018-10-11T03:32:35.931Z,20.17
2018-10-11T03:35:06.898Z,18.73
2018-10-11T03:37:37.537Z,20.43
2018-10-11T03:40:08.174Z,18.00
2018-10-11T03:42:38.857Z,19.25
2018-10-11T03:45:10.122Z,21.45
2018-10-11T03:47:41.125Z,20.35
2018-10-11T03:50:11.757Z,17.95
2018-10-11T03:52:42.410Z,18.85
2018-10-11T03:55:13.046Z,19.15
2018-10-11T03:57:43.842Z,19.10
2018-10-11T04:00:14.786Z,21.42
2018-10-11T04:02:45.773Z,19.52
2018-10-11T04:05:16.370Z,18.20
2018-10-11T04:07:47.027Z,17.92
2018-10-11T04:10:17.651Z,23.38
2018-10-11T04:12:48.289Z,23.57
2018-10-11T04:15:19.226Z,19.35
2018-10-11T04:17:49.874Z,19.55
2018-10-11T04:20:20.513Z,19.40
2018-10-11T04:22:51.150Z,20.57
2018-10-11T04:28:42.379Z,21.55
2018-10-11T04:31:17.519Z,21.35
2018-10-11T04:33:48.513Z,21.00
2018-10-11T04:36:19.205Z,19.65
2018-10-11T04:38:49.821Z,16.60
2018-10-11T04:41:20.524Z,19.95
2018-10-11T04:43:51.161Z,18.95
2018-10-11T04:46:21.774Z,19.67
2018-10-11T04:48:52.441Z,19.27
2018-10-11T04:51:23.086Z,20.48
2018-10-11T04:53:57.334Z,19.67
2018-10-11T04:56:28.802Z,22.48
2018-10-11T04:58:59.618Z,16.97
2018-10-11T05:01:30.262Z,22.67
2018-10-11T05:04:00.910Z,19.85
2018-10-11T05:06:31.522Z,21.05
2018-10-11T05:09:02.171Z,20.92
2018-10-11T05:11:32.826Z,19.80
2018-10-11T05:14:03.518Z,20.37
2018-10-11T05:16:34.182Z,20.45
2018-10-11T05:19:04.862Z,19.07
2018-10-11T05:21:35.488Z,19.98
2018-10-11T05:24:06.625Z,20.37
2018-10-11T05:26:37.977Z,20.68
2018-10-11T05:29:08.801Z,22.22
2018-10-11T05:31:39.485Z,21.52
2018-10-11T05:34:10.117Z,21.20
2018-10-11T05:36:40.761Z,22.90
2018-10-11T05:39:11.723Z,24.40
2018-10-11T05:41:42.429Z,22.62
2018-10-11T05:44:13.462Z,23.57
2018-10-11T05:46:44.318Z,23.83
2018-10-11T05:49:15.014Z,22.73
2018-10-11T05:51:45.648Z,27.05
2018-10-11T05:54:16.308Z,27.05
2018-10-11T05:56:47.232Z,26.85
2018-10-11T05:59:18.130Z,27.90
2018-10-11T06:01:49.009Z,23.12
2018-10-11T06:04:19.849Z,23.18
2018-10-11T06:06:50.555Z,26.12
2018-10-11T06:09:21.440Z,27.10
2018-10-11T06:11:52.176Z,27.20
2018-10-11T06:14:23.030Z,22.15
2018-10-11T06:16:54.041Z,23.47
2018-10-11T06:19:24.686Z,26.55
2018-10-11T06:21:55.677Z,23.25
2018-10-11T06:24:28.425Z,25.17
2018-10-11T06:26:59.395Z,27.05
2018-10-11T06:29:30.233Z,24.37
2018-10-11T06:32:01.226Z,23.83
2018-10-11T06:34:31.862Z,23.60
2018-10-11T06:37:03.212Z,24.82
2018-10-11T06:39:33.887Z,22.17
2018-10-11T06:42:04.557Z,22.80
2018-10-11T06:44:35.701Z,28.87
2018-10-11T06:47:06.421Z,21.12
2018-10-11T06:49:37.286Z,26.40
2018-10-11T06:52:07.955Z,26.80
2018-10-11T06:54:38.619Z,23.60
2018-10-11T06:57:09.234Z,24.92
2018-10-11T06:59:40.209Z,26.48
2018-10-11T07:02:10.857Z,26.07
2018-10-11T07:04:41.459Z,26.35
2018-10-11T07:07:12.068Z,26.73
2018-10-11T07:09:49.602Z,24.82
2018-10-11T07:12:20.204Z,26.82
2018-10-11T07:14:51.042Z,24.98
2018-10-11T07:17:21.685Z,25.08
2018-10-11T07:19:52.344Z,29.30
2018-10-11T07:22:22.974Z,27.58
2018-10-11T07:24:53.609Z,22.87
2018-10-11T07:27:24.254Z,26.02
2018-10-11T07:29:54.897Z,23.95
2018-10-11T07:32:25.843Z,24.85
2018-10-11T07:34:56.589Z,22.35
2018-10-11T07:37:27.312Z,24.55
2018-10-11T07:39:57.940Z,23.40
2018-10-11T07:42:28.586Z,23.30
2018-10-11T07:44:59.201Z,23.62
2018-10-11T07:47:29.876Z,20.80
2018-10-11T07:50:00.506Z,24.63
2018-10-11T07:52:31.149Z,24.18
2018-10-11T07:55:01.770Z,24.45
2018-10-11T07:57:32.418Z,21.77
2018-10-11T08:00:03.082Z,22.10
2018-10-11T08:02:33.737Z,21.55
2018-10-11T08:05:04.790Z,20.27
2018-10-11T08:07:35.665Z,18.67
2018-10-11T08:10:06.905Z,18.67
2018-10-11T08:12:37.551Z,21.02
2018-10-11T08:15:08.185Z,20.82
2018-10-11T08:17:39.222Z,19.57
2018-10-11T08:20:10.087Z,21.12
2018-10-11T08:22:40.871Z,18.98
2018-10-11T08:25:11.566Z,20.25
2018-10-11T08:27:42.372Z,19.23
2018-10-11T08:30:13.021Z,22.75
2018-10-11T08:32:43.782Z,19.85
2018-10-11T08:35:14.874Z,19.92
2018-10-11T08:37:45.555Z,18.92
2018-10-11T08:40:16.326Z,20.65
2018-10-11T08:42:46.937Z,19.48
2018-10-11T08:45:17.578Z,19.20
2018-10-11T08:47:48.214Z,18.50
2018-10-11T08:50:19.284Z,16.48
2018-10-11T08:52:49.997Z,16.67
2018-10-11T08:55:20.727Z,20.65
2018-10-11T08:57:50.320Z,17.45
2018-10-11T09:00:21.282Z,16.85
2018-10-11T09:02:51.893Z,18.10
2018-10-11T09:05:22.533Z,16.40
2018-10-11T09:07:53.365Z,16.65
2018-10-11T09:10:37.860Z,19.73
2018-10-11T09:12:54.832Z,18.65
2018-10-11T09:15:25.685Z,19.05
2018-10-11T09:17:56.326Z,15.98
2018-10-11T09:20:26.961Z,17.40
2018-10-11T09:22:57.759Z,16.27
2018-10-11T09:25:28.394Z,17.10
2018-10-11T09:27:59.036Z,15.35
2018-10-11T09:30:29.771Z,15.80
2018-10-11T09:33:00.478Z,17.35
2018-10-11T09:35:31.124Z,15.58
2018-10-11T09:38:01.778Z,17.20
2018-10-11T09:40:32.706Z,16.57
2018-10-11T09:43:03.371Z,14.53
2018-10-11T09:45:34.145Z,16.90
2018-10-11T09:48:04.783Z,15.35
2018-10-11T09:50:35.718Z,13.88
2018-10-11T09:53:06.943Z,16.23
2018-10-11T09:55:37.594Z,15.55
2018-10-11T09:58:08.190Z,15.10
2018-10-11T10:00:44.262Z,17.67
2018-10-11T10:03:15.218Z,13.40
2018-10-11T10:05:45.837Z,14.53
2018-10-11T10:08:16.441Z,13.98
2018-10-11T10:10:47.086Z,13.95
2018-10-11T10:13:17.689Z,13.98
2018-10-11T10:15:48.318Z,13.32
2018-10-11T10:18:19.472Z,13.75
2018-10-11T10:20:50.090Z,15.25
2018-10-11T10:23:20.739Z,14.45
2018-10-11T10:25:51.334Z,13.65
2018-10-11T10:28:21.971Z,10.82
2018-10-11T10:30:54.792Z,11.57
2018-10-11T10:33:25.953Z,10.53
2018-10-11T10:35:56.295Z,12.67
2018-10-11T10:38:26.934Z,11.40
2018-10-11T10:40:57.228Z,12.80
2018-10-11T10:43:27.867Z,10.78
2018-10-11T10:45:58.190Z,13.43
2018-10-11T10:48:28.854Z,11.57
2018-10-11T10:50:59.470Z,11.90
2018-10-11T10:53:30.119Z,12.10
2018-10-11T10:56:00.900Z,12.23
2018-10-11T10:58:31.717Z,12.15
2018-10-11T11:01:02.346Z,14.47
2018-10-11T11:03:32.979Z,11.73
2018-10-11T11:06:03.291Z,12.73
2018-10-11T11:08:33.935Z,13.22
2018-10-11T11:11:04.726Z,13.43
2018-10-11T11:13:35.382Z,11.65
2018-10-11T11:16:06.216Z,11.00
2018-10-11T11:18:36.870Z,11.78
2018-10-11T11:21:08.309Z,10.58
2018-10-11T11:23:38.982Z,11.10
2018-10-11T11:26:09.746Z,11.80
2018-10-11T11:28:40.450Z,12.40
2018-10-11T11:31:11.117Z,10.10
2018-10-11T11:33:41.918Z,10.23
2018-10-11T11:36:12.268Z,10.83
2018-10-11T11:38:42.910Z,12.93
2018-10-11T11:41:13.555Z,11.97
2018-10-11T11:43:44.233Z,12.68
2018-10-11T11:46:15.185Z,11.48
2018-10-11T11:48:45.518Z,14.00
2018-10-11T11:51:16.138Z,11.80
2018-10-11T11:53:46.485Z,13.33
2018-10-11T11:56:17.082Z,12.07
2018-10-11T11:58:47.426Z,12.63
2018-10-11T12:01:18.053Z,11.55
2018-10-11T12:03:48.377Z,14.90
2018-10-11T12:06:18.730Z,11.87
2018-10-11T12:08:49.038Z,10.80
2018-10-11T12:11:19.729Z,10.13
2018-10-11T12:13:50.036Z,12.97
2018-10-11T12:16:20.659Z,11.60
2018-10-11T12:18:51.301Z,12.25
2018-10-11T12:21:21.641Z,11.30
2018-10-11T12:23:51.944Z,13.17
2018-10-11T12:26:22.345Z,11.23
2018-10-11T12:28:53.185Z,11.95
2018-10-11T12:31:23.650Z,13.63
2018-10-11T12:33:54.278Z,10.65
2018-10-11T12:36:24.920Z,12.93
2018-10-11T12:38:56.497Z,11.00
2018-10-11T12:41:26.229Z,13.90
2018-10-11T12:43:56.849Z,11.70
2018-10-11T12:46:27.222Z,14.60
2018-10-11T12:48:57.813Z,10.72
2018-10-11T12:51:28.489Z,13.40
2018-10-11T12:53:58.845Z,18.27
2018-10-11T12:56:29.333Z,14.70
2018-10-11T12:58:59.834Z,16.40
2018-10-11T13:01:30.347Z,14.67
2018-10-11T13:04:00.695Z,10.43
2018-10-11T13:06:31.013Z,12.93
2018-10-11T13:09:01.662Z,12.15
2018-10-11T13:11:32.283Z,11.53
2018-10-11T13:14:02.911Z,14.98
2018-10-11T13:16:33.221Z,14.10
2018-10-11T13:19:04.239Z,11.93
2018-10-11T13:21:34.837Z,10.50
2018-10-11T13:24:05.499Z,10.80
2018-10-11T13:26:35.810Z,12.60
2018-10-11T13:29:06.166Z,10.30
2018-10-11T13:31:36.510Z,10.20
2018-10-11T13:34:07.034Z,12.20
2018-10-11T13:36:37.352Z,11.87
2018-10-11T13:39:08.915Z,10.57
2018-10-11T13:41:39.944Z,11.43
2018-10-11T13:44:10.350Z,11.33
2018-10-11T13:46:40.665Z,9.47
2018-10-11T13:49:11.309Z,12.07
2018-10-11T13:51:41.770Z,9.57
2018-10-11T13:54:18.106Z,12.65
2018-10-11T13:56:53.878Z,11.20
2018-10-11T13:59:19.250Z,13.20
2018-10-11T14:01:49.591Z,10.30
2018-10-11T14:04:20.328Z,11.60
2018-10-11T14:06:50.914Z,14.07
2018-10-11T14:09:21.216Z,9.53
2018-10-11T14:11:51.542Z,12.77
2018-10-11T14:14:21.863Z,11.43
2018-10-11T14:16:52.212Z,10.47
2018-10-11T14:19:22.545Z,13.07
2018-10-11T14:21:52.857Z,10.70
2018-10-11T14:24:23.166Z,10.30
2018-10-11T14:26:53.511Z,9.97
2018-10-11T14:29:23.826Z,10.03
2018-10-11T14:31:54.182Z,10.90
2018-10-11T14:34:24.500Z,12.37
2018-10-11T14:36:55.128Z,11.73
2018-10-11T14:39:25.552Z,8.73
2018-10-11T14:41:55.944Z,10.00
2018-10-11T14:44:26.446Z,11.87
2018-10-11T14:46:56.969Z,9.20
2018-10-11T14:49:27.534Z,10.30
2018-10-11T14:51:58.094Z,11.90
2018-10-11T14:54:31.839Z,10.77
2018-10-11T14:57:03.547Z,9.03
2018-10-11T14:59:40.776Z,9.63
2018-10-11T15:02:11.270Z,12.17
2018-10-11T15:04:41.598Z,8.30
2018-10-11T15:07:12.142Z,10.20
2018-10-11T15:09:42.531Z,11.87
2018-10-11T15:12:13.067Z,12.00
2018-10-11T15:14:43.565Z,9.07
2018-10-11T15:17:14.794Z,11.57
2018-10-11T15:19:45.365Z,9.60
2018-10-11T15:22:15.692Z,12.47
2018-10-11T15:24:46.022Z,14.10
2018-10-11T15:27:16.373Z,8.90
2018-10-11T15:29:46.692Z,10.67
2018-10-11T15:32:17.243Z,13.40
2018-10-11T15:34:48.008Z,12.73
2018-10-11T15:37:18.473Z,8.60
2018-10-11T15:39:48.790Z,12.03
2018-10-11T15:42:19.302Z,14.97
2018-10-11T15:44:49.636Z,10.53
2018-10-11T15:47:19.995Z,8.70
2018-10-11T15:49:50.290Z,10.63
2018-10-11T15:52:20.671Z,8.53
2018-10-11T15:54:51.131Z,8.63
2018-10-11T15:57:21.469Z,8.40
2018-10-11T15:59:51.970Z,9.20
2018-10-11T16:02:22.324Z,10.57
2018-10-11T16:04:52.714Z,10.43
2018-10-11T16:07:23.067Z,9.33
2018-10-11T16:09:53.378Z,9.03
2018-10-11T16:12:23.718Z,9.90
2018-10-11T16:14:54.033Z,9.17
2018-10-11T16:17:24.363Z,9.30
2018-10-11T16:19:54.698Z,7.23
2018-10-11T16:22:25.059Z,12.83
2018-10-11T16:24:55.460Z,7.07
2018-10-11T16:27:25.904Z,7.87
2018-10-11T16:29:56.449Z,7.07
2018-10-11T16:32:26.826Z,10.10
2018-10-11T16:34:57.371Z,7.13
2018-10-11T16:37:27.694Z,6.67
2018-10-11T16:39:58.086Z,9.93
2018-10-11T16:42:28.427Z,10.83
2018-10-11T16:44:58.744Z,10.20
2018-10-11T16:47:29.418Z,7.83
2018-10-11T16:49:59.833Z,8.00
2018-10-11T16:52:30.250Z,9.23
2018-10-11T16:55:00.562Z,8.63
2018-10-11T16:57:30.890Z,8.43
2018-10-11T17:00:01.198Z,9.03
2018-10-11T17:02:31.860Z,10.82
2018-10-11T17:05:02.182Z,10.13
2018-10-11T17:07:32.516Z,7.07
2018-10-11T17:10:02.926Z,9.23
2018-10-11T17:12:33.393Z,9.03
2018-10-11T17:15:03.833Z,8.23
2018-10-11T17:17:34.293Z,9.17
2018-10-11T17:20:04.919Z,11.45
2018-10-11T17:22:35.254Z,14.33
2018-10-11T17:25:06.224Z,10.80
2018-10-11T17:27:36.852Z,9.43
2018-10-11T17:30:07.538Z,11.33
2018-10-11T17:32:38.174Z,14.70
2018-10-11T17:35:08.584Z,13.90
2018-10-11T17:37:39.367Z,14.87
2018-10-11T17:40:10.843Z,19.98
2018-10-11T17:42:41.495Z,18.85
2018-10-11T17:45:12.114Z,22.95
2018-10-11T17:47:42.778Z,20.08
2018-10-11T17:50:13.475Z,13.48
2018-10-11T17:52:44.240Z,10.88
2018-10-11T17:55:14.854Z,13.83
2018-10-11T17:57:45.488Z,15.65
2018-10-11T18:00:15.983Z,14.07
2018-10-11T18:02:46.322Z,12.60
2018-10-11T18:05:16.951Z,11.83
2018-10-11T18:07:47.595Z,17.00
2018-10-11T18:10:18.198Z,16.00
2018-10-11T18:12:48.835Z,17.17
2018-10-11T18:15:19.453Z,14.90
2018-10-11T18:17:50.281Z,17.55
2018-10-11T18:20:21.068Z,15.03
2018-10-11T18:22:51.706Z,13.95
2018-10-11T18:25:22.441Z,18.23
2018-10-11T18:27:53.026Z,19.73
2018-10-11T18:30:23.656Z,20.80
2018-10-11T18:32:54.502Z,15.05
2018-10-11T18:35:25.121Z,20.52
2018-10-11T18:37:55.767Z,15.58
2018-10-11T18:40:26.382Z,13.30
2018-10-11T18:42:57.009Z,16.12
2018-10-11T18:45:27.637Z,13.60
2018-10-11T18:47:58.225Z,13.20
2018-10-11T18:50:28.875Z,15.00
2018-10-11T18:52:59.545Z,15.30
2018-10-11T18:55:30.146Z,13.28
2018-10-11T18:58:00.821Z,11.85
2018-10-11T19:00:31.611Z,13.68
2018-10-11T19:03:02.261Z,16.50
2018-10-11T19:05:32.962Z,19.30
2018-10-11T19:08:03.557Z,13.03
2018-10-11T19:10:34.390Z,12.43
2018-10-11T19:13:05.327Z,13.08
2018-10-11T19:15:36.612Z,12.73
2018-10-11T19:18:07.897Z,12.75
2018-10-11T19:20:40.077Z,11.35
2018-10-11T19:23:12.311Z,15.05
2018-10-11T19:25:44.957Z,17.70
2018-10-11T19:28:16.919Z,14.85
2018-10-11T19:30:48.584Z,13.28
2018-10-11T19:33:19.558Z,17.00
2018-10-11T19:35:50.617Z,16.75
2018-10-11T19:38:21.417Z,12.30
2018-10-11T19:40:52.043Z,11.65
2018-10-11T19:43:22.705Z,15.25
2018-10-11T19:45:53.326Z,12.03
2018-10-11T19:48:24.011Z,12.33
2018-10-11T19:50:54.827Z,19.15
2018-10-11T19:53:25.474Z,17.25
2018-10-11T19:55:56.099Z,18.60
2018-10-11T19:58:26.958Z,15.80
2018-10-11T20:00:57.572Z,12.58
2018-10-11T20:03:28.193Z,13.88
2018-10-11T20:05:59.032Z,15.78
2018-10-11T20:08:29.926Z,16.00
2018-10-11T20:11:00.929Z,15.25
2018-10-11T20:13:31.575Z,15.53
2018-10-11T20:16:02.202Z,14.23
2018-10-11T20:18:32.837Z,16.60
2018-10-11T20:21:03.430Z,15.85
2018-10-11T20:23:34.074Z,16.82
2018-10-11T20:26:04.840Z,18.45
2018-10-11T20:28:35.578Z,15.13
2018-10-11T20:31:06.334Z,19.55
2018-10-11T20:33:36.929Z,21.60
2018-10-11T20:36:07.582Z,15.63
2018-10-11T20:38:38.190Z,17.10
2018-10-11T20:41:08.822Z,16.85
2018-10-11T20:43:39.505Z,13.83
2018-10-11T20:46:10.263Z,17.80
2018-10-11T20:48:40.918Z,21.80
2018-10-11T20:51:11.590Z,17.27
2018-10-11T20:53:42.366Z,15.20
2018-10-11T20:56:12.993Z,17.20
2018-10-11T20:58:44.255Z,16.67
2018-10-11T21:01:14.881Z,15.93
2018-10-11T21:03:45.512Z,15.55
2018-10-11T21:06:16.112Z,17.12
2018-10-11T21:08:46.943Z,16.52
2018-10-11T21:11:17.930Z,15.85
2018-10-11T21:13:48.561Z,17.50
2018-10-11T21:16:19.208Z,18.82
2018-10-11T21:18:49.818Z,17.27
2018-10-11T21:21:20.469Z,21.07
2018-10-11T21:23:51.093Z,15.95
2018-10-11T21:26:21.691Z,13.80
2018-10-11T21:28:52.329Z,19.85
2018-10-11T21:31:22.929Z,18.00
2018-10-11T21:33:53.729Z,14.83
2018-10-11T21:36:24.393Z,16.82
2018-10-11T21:38:55.193Z,14.90
2018-10-11T21:41:25.823Z,19.07
2018-10-11T21:43:56.465Z,17.32
2018-10-11T21:46:27.526Z,17.85
2018-10-11T21:48:58.330Z,15.00
2018-10-11T21:51:28.953Z,16.45
2018-10-11T21:53:59.725Z,13.20
2018-10-11T21:56:30.363Z,15.98
2018-10-11T21:59:01.337Z,14.65
2018-10-11T22:01:31.983Z,13.68
2018-10-11T22:04:02.595Z,14.45
2018-10-11T22:06:33.626Z,13.25
2018-10-11T22:09:05.182Z,14.23
2018-10-11T22:11:35.917Z,16.30
2018-10-11T22:14:06.745Z,19.45
2018-10-11T22:16:37.357Z,16.23
2018-10-11T22:19:08.618Z,14.98
2018-10-11T22:21:39.234Z,14.13
2018-10-11T22:24:09.862Z,16.35
2018-10-11T22:26:40.517Z,16.67
2018-10-11T22:29:11.143Z,16.50
2018-10-11T22:31:41.778Z,16.80
2018-10-11T22:34:12.398Z,16.97
2018-10-11T22:36:43.103Z,13.38
2018-10-11T22:39:13.888Z,12.45
2018-10-11T22:41:44.505Z,13.05
2018-10-11T22:44:15.147Z,14.55
2018-10-11T22:46:45.745Z,18.73
2018-10-11T22:49:16.382Z,50.12
2018-10-11T22:51:47.009Z,36.80
2018-10-11T22:54:17.678Z,18.42
2018-10-11T22:56:48.971Z,19.17
2018-10-11T22:59:19.605Z,14.63
2018-10-11T23:01:50.219Z,14.63
2018-10-11T23:04:20.833Z,14.90
2018-10-11T23:06:51.439Z,13.25
2018-10-11T23:09:22.093Z,12.88
2018-10-11T23:11:52.702Z,12.85
2018-10-11T23:14:23.363Z,14.15
2018-10-11T23:16:53.982Z,13.48
2018-10-11T23:19:24.649Z,11.93
2018-10-11T23:21:55.790Z,12.53
2018-10-11T23:24:27.067Z,12.93
2018-10-11T23:26:57.674Z,15.68
2018-10-11T23:29:28.313Z,14.58
2018-10-11T23:31:58.925Z,14.98
2018-10-11T23:34:29.584Z,12.78
2018-10-11T23:37:00.378Z,14.50
2018-10-11T23:39:31.017Z,13.13
2018-10-11T23:42:01.986Z,12.25
2018-10-11T23:44:32.622Z,10.85
2018-10-11T23:47:03.249Z,11.63
2018-10-11T23:49:33.909Z,14.83
2018-10-11T23:52:04.733Z,11.73
2018-10-11T23:54:35.346Z,16.20
2018-10-11T23:57:06.487Z,14.25
2018-10-11T23:59:43.669Z,16.12
